Time;durP1;ratioP1;P1;durP2;ratioP2;P2;SDS_P1;SDS_P2;PMS_P1;PMS_P2;Temp;Humidity;BMP_temperature;BMP_pressure;BME280_temperature;BME280_humidity;BME280_pressure;Samples;Min_cycle;Max_cycle;Signal;HPM_P1;HPM_P2
2021/07/04 00:00:35;;;;;;;;;;;11.10;97.90;;;;;;5053062;28;19936;-68
2021/07/04 00:03:03;;;;;;;;;;;11.20;98.10;;;;;;5053134;28;20411;-67
2021/07/04 00:05:32;;;;;;;;;;;11.20;97.50;;;;;;5052814;28;20015;-68
2021/07/04 00:07:58;;;;;;;;;;;11.20;97.30;;;;;;5052976;28;19962;-68
2021/07/04 00:10:27;;;;;;;;;;;11.30;97.90;;;;;;5052766;28;20379;-69
2021/07/04 00:12:53;;;;;;;;;;;11.30;97.80;;;;;;5052949;28;20304;-67
2021/07/04 00:15:22;;;;;;;;;;;11.50;97.10;;;;;;5052681;28;19921;-67
2021/07/04 00:17:49;;;;;;;;;;;11.40;96.50;;;;;;5052576;28;20023;-67
2021/07/04 00:20:16;;;;;;;;;;;11.40;97.30;;;;;;5052849;28;19916;-67
2021/07/04 00:22:44;;;;;;;;;;;11.40;96.70;;;;;;5052982;28;20371;-67
2021/07/04 00:25:11;;;;;;;;;;;11.30;97.00;;;;;;5052555;28;20381;-67
2021/07/04 00:27:38;;;;;;;;;;;11.30;96.30;;;;;;5052472;28;19909;-67
2021/07/04 00:30:09;;;;;;;;;;;11.30;96.60;;;;;;5052890;28;19915;-68
2021/07/04 00:32:36;;;;;;;;;;;11.30;96.40;;;;;;5052782;28;19951;-68
2021/07/04 00:35:03;;;;;;;;;;;11.30;97.10;;;;;;5052670;28;19909;-67
2021/07/04 00:37:30;;;;;;;;;;;11.30;97.40;;;;;;5052697;28;20356;-68
2021/07/04 00:39:57;;;;;;;;;;;11.50;97.60;;;;;;5052784;28;19913;-68
2021/07/04 00:42:23;;;;;;;;;;;11.50;97.30;;;;;;5052558;28;20072;-68
2021/07/04 00:44:51;;;;;;;;;;;11.60;98.00;;;;;;5052461;28;19985;-68
2021/07/04 00:47:18;;;;;;;;;;;11.60;96.60;;;;;;5052719;28;19924;-68
2021/07/04 00:49:44;;;;;;;;;;;11.70;96.70;;;;;;5052448;28;20390;-66
2021/07/04 00:52:11;;;;;;;;;;;11.70;96.50;;;;;;5052460;28;19909;-67
2021/07/04 00:54:38;;;;;;;;;;;11.60;96.40;;;;;;5052453;28;19917;-67
2021/07/04 00:57:06;;;;;;;;;;;11.70;96.40;;;;;;5052164;28;20359;-68
2021/07/04 00:59:32;;;;;;;;;;;11.70;96.40;;;;;;5053096;28;19909;-68
2021/07/04 01:01:59;;;;;;;;;;;11.70;96.50;;;;;;5056319;28;19909;-66
2021/07/04 01:04:26;;;;;;;;;;;11.80;96.90;;;;;;5056091;28;19909;-68
2021/07/04 01:06:53;;;;;;;;;;;12.10;96.50;;;;;;5056229;28;20030;-67
2021/07/04 01:09:20;;;;;;;;;;;12.70;95.60;;;;;;5056040;28;19908;-67
2021/07/04 01:11:47;;;;;;;;;;;12.80;95.10;;;;;;5055815;28;19939;-67
2021/07/04 01:14:14;;;;;;;;;;;13.20;93.90;;;;;;5055881;28;19930;-67
2021/07/04 01:16:41;;;;;;;;;;;13.30;93.10;;;;;;5056145;28;19912;-66
2021/07/04 01:19:07;;;;;;;;;;;13.50;92.00;;;;;;5055818;28;19909;-67
2021/07/04 01:21:39;;;;;;;;;;;13.30;92.40;;;;;;5055787;28;19909;-67
2021/07/04 01:24:06;;;;;;;;;;;13.10;92.70;;;;;;5055589;28;19966;-66
2021/07/04 01:26:33;;;;;;;;;;;13.10;92.90;;;;;;5055597;28;19916;-68
2021/07/04 01:28:59;;;;;;;;;;;13.00;93.30;;;;;;5055124;28;19932;-67
2021/07/04 01:31:26;;;;;;;;;;;13.10;93.60;;;;;;5055672;28;20347;-67
2021/07/04 01:33:53;;;;;;;;;;;13.00;93.80;;;;;;5055498;28;19909;-68
2021/07/04 01:36:19;;;;;;;;;;;12.90;94.10;;;;;;5055633;28;19931;-67
2021/07/04 01:38:46;;;;;;;;;;;12.80;93.80;;;;;;5055635;28;19912;-67
2021/07/04 01:41:13;;;;;;;;;;;12.80;94.10;;;;;;5055371;28;19995;-68
2021/07/04 01:43:39;;;;;;;;;;;12.70;93.70;;;;;;5054610;28;19909;-66
2021/07/04 01:46:06;;;;;;;;;;;12.70;93.90;;;;;;5055372;28;19923;-66
2021/07/04 01:48:33;;;;;;;;;;;12.70;94.00;;;;;;5055426;28;19919;-66
2021/07/04 01:50:59;;;;;;;;;;;12.60;93.50;;;;;;5055081;28;20371;-66
2021/07/04 01:53:26;;;;;;;;;;;12.50;94.30;;;;;;5055419;28;19931;-66
2021/07/04 01:55:53;;;;;;;;;;;12.50;94.70;;;;;;5054645;28;19932;-66
2021/07/04 01:58:19;;;;;;;;;;;12.50;94.90;;;;;;5054642;28;20298;-67
2021/07/04 02:00:46;;;;;;;;;;;12.80;94.20;;;;;;5055117;28;19961;-65
2021/07/04 02:03:13;;;;;;;;;;;12.80;93.50;;;;;;5053800;28;19952;-67
2021/07/04 02:05:40;;;;;;;;;;;12.70;93.80;;;;;;5054841;28;19991;-66
2021/07/04 02:08:07;;;;;;;;;;;12.70;94.20;;;;;;5055015;28;19912;-67
2021/07/04 02:10:36;;;;;;;;;;;12.60;93.70;;;;;;5054530;28;20379;-67
2021/07/04 02:13:04;;;;;;;;;;;12.60;93.80;;;;;;5054049;28;19917;-67
2021/07/04 02:15:32;;;;;;;;;;;12.60;95.20;;;;;;5054445;28;19925;-67
2021/07/04 02:18:03;;;;;;;;;;;12.60;94.40;;;;;;5054797;28;19915;-67
2021/07/04 02:20:31;;;;;;;;;;;12.60;94.30;;;;;;5054671;28;19909;-66
2021/07/04 02:23:07;;;;;;;;;;;12.60;94.30;;;;;;5054766;28;19913;-66
2021/07/04 02:25:34;;;;;;;;;;;12.50;93.30;;;;;;5054218;28;20027;-66
2021/07/04 02:28:01;;;;;;;;;;;12.50;93.60;;;;;;5054004;28;19944;-67
2021/07/04 02:30:28;;;;;;;;;;;12.40;93.80;;;;;;5054540;28;20367;-67
2021/07/04 02:32:55;;;;;;;;;;;12.40;94.40;;;;;;5054402;28;19909;-66
2021/07/04 02:35:21;;;;;;;;;;;12.40;94.20;;;;;;5054445;28;20236;-67
2021/07/04 02:37:48;;;;;;;;;;;12.50;95.00;;;;;;5054451;28;19963;-67
2021/07/04 02:40:15;;;;;;;;;;;12.60;94.40;;;;;;5054255;28;19963;-67
2021/07/04 02:42:41;;;;;;;;;;;12.60;94.30;;;;;;5053648;28;19916;-67
2021/07/04 02:45:08;;;;;;;;;;;12.70;95.80;;;;;;5054028;28;20373;-67
2021/07/04 02:47:35;;;;;;;;;;;12.70;94.20;;;;;;5054086;28;20221;-67
2021/07/04 02:50:03;;;;;;;;;;;12.60;94.80;;;;;;5054217;28;19916;-68
2021/07/04 02:52:30;;;;;;;;;;;12.60;94.20;;;;;;5054303;28;19978;-68
2021/07/04 02:54:56;;;;;;;;;;;12.60;94.80;;;;;;5053879;28;19919;-67
2021/07/04 02:57:23;;;;;;;;;;;12.70;94.50;;;;;;5053751;28;19958;-68
2021/07/04 02:59:50;;;;;;;;;;;12.70;94.80;;;;;;5053811;28;20039;-67
2021/07/04 03:02:16;;;;;;;;;;;12.70;94.80;;;;;;5054065;28;19913;-66
2021/07/04 03:04:43;;;;;;;;;;;12.80;95.00;;;;;;5053923;28;19915;-67
2021/07/04 03:07:10;;;;;;;;;;;12.80;95.40;;;;;;5053622;28;19913;-67
2021/07/04 03:09:36;;;;;;;;;;;12.70;94.70;;;;;;5051765;28;20348;-67
2021/07/04 03:12:04;;;;;;;;;;;12.70;94.60;;;;;;5053460;28;19916;-68
2021/07/04 03:14:31;;;;;;;;;;;12.80;95.10;;;;;;5052853;28;20733;-67
2021/07/04 03:16:57;;;;;;;;;;;13.00;94.20;;;;;;5053517;28;19909;-67
2021/07/04 03:19:24;;;;;;;;;;;12.90;94.10;;;;;;5053674;28;19952;-67
2021/07/04 03:21:51;;;;;;;;;;;12.90;94.30;;;;;;5053246;28;19913;-69
2021/07/04 03:24:17;;;;;;;;;;;12.80;93.40;;;;;;5053360;28;19920;-67
2021/07/04 03:26:44;;;;;;;;;;;12.80;94.20;;;;;;5053515;28;20294;-68
2021/07/04 03:29:11;;;;;;;;;;;13.10;94.60;;;;;;5053038;28;20363;-70
2021/07/04 03:31:37;;;;;;;;;;;13.10;93.40;;;;;;5053198;28;19916;-66
2021/07/04 03:34:04;;;;;;;;;;;13.10;93.70;;;;;;5053313;28;19974;-66
2021/07/04 03:36:31;;;;;;;;;;;13.00;93.30;;;;;;5053418;28;19955;-66
2021/07/04 03:39:00;;;;;;;;;;;12.90;93.70;;;;;;5053517;28;19992;-66
2021/07/04 03:41:27;;;;;;;;;;;12.90;93.20;;;;;;5053190;28;19913;-67
2021/07/04 03:43:53;;;;;;;;;;;12.80;93.30;;;;;;5052387;28;19989;-66
2021/07/04 03:46:22;;;;;;;;;;;12.80;93.50;;;;;;5053285;28;20039;-66
2021/07/04 03:48:48;;;;;;;;;;;12.80;93.40;;;;;;5053207;28;19945;-66
2021/07/04 03:51:15;;;;;;;;;;;12.80;93.90;;;;;;5053112;28;20378;-66
2021/07/04 03:53:41;;;;;;;;;;;12.80;94.70;;;;;;5052740;28;19988;-66
2021/07/04 03:56:08;;;;;;;;;;;12.90;94.10;;;;;;5052970;28;20016;-66
2021/07/04 03:58:35;;;;;;;;;;;13.10;93.20;;;;;;5052680;28;19909;-68
2021/07/04 04:01:02;;;;;;;;;;;13.10;93.10;;;;;;5052975;28;20007;-66
2021/07/04 04:03:29;;;;;;;;;;;13.10;92.20;;;;;;5053239;28;19991;-68
2021/07/04 04:05:57;;;;;;;;;;;13.10;92.40;;;;;;5053276;28;19916;-68
2021/07/04 04:08:24;;;;;;;;;;;13.10;92.50;;;;;;5053073;28;19916;-67
2021/07/04 04:10:51;;;;;;;;;;;13.10;93.60;;;;;;5052859;28;19909;-68
2021/07/04 04:13:19;;;;;;;;;;;13.20;95.00;;;;;;5051784;28;19909;-66
2021/07/04 04:15:46;;;;;;;;;;;13.20;93.10;;;;;;5052427;28;19921;-67
2021/07/04 04:18:14;;;;;;;;;;;13.20;93.40;;;;;;5053349;28;19912;-67
2021/07/04 04:20:41;;;;;;;;;;;13.20;95.80;;;;;;5052925;28;20562;-67
2021/07/04 04:23:08;;;;;;;;;;;13.30;92.70;;;;;;5052991;28;19962;-68
2021/07/04 04:25:35;;;;;;;;;;;13.30;92.60;;;;;;5052712;28;19970;-68
2021/07/04 04:28:04;;;;;;;;;;;13.30;93.70;;;;;;5052836;28;19948;-67
2021/07/04 04:30:34;;;;;;;;;;;13.30;94.50;;;;;;5053167;28;20348;-67
2021/07/04 04:33:01;;;;;;;;;;;13.30;93.80;;;;;;5051841;28;19962;-66
2021/07/04 04:35:27;;;;;;;;;;;13.30;93.20;;;;;;5055485;28;19936;-67
2021/07/04 04:37:54;;;;;;;;;;;13.30;93.30;;;;;;5056635;28;19908;-67
2021/07/04 04:40:21;;;;;;;;;;;13.40;94.80;;;;;;5056580;28;20351;-67
2021/07/04 04:42:47;;;;;;;;;;;13.50;94.30;;;;;;5056752;28;19917;-68
2021/07/04 04:45:14;;;;;;;;;;;13.60;93.80;;;;;;5056428;28;19936;-67
2021/07/04 04:47:41;;;;;;;;;;;13.70;92.30;;;;;;5056546;28;19913;-68
2021/07/04 04:50:08;;;;;;;;;;;13.70;92.80;;;;;;5056515;28;20371;-67
2021/07/04 04:52:36;;;;;;;;;;;13.60;93.80;;;;;;5056265;28;19915;-67
2021/07/04 04:55:06;;;;;;;;;;;13.70;92.80;;;;;;5056232;28;19916;-68
2021/07/04 04:57:33;;;;;;;;;;;13.60;93.40;;;;;;5056278;28;19909;-67
2021/07/04 05:00:00;;;;;;;;;;;13.70;94.10;;;;;;5056432;28;19909;-67
2021/07/04 05:02:27;;;;;;;;;;;13.80;93.30;;;;;;5056126;28;19931;-67
2021/07/04 05:04:54;;;;;;;;;;;13.80;94.00;;;;;;5056154;28;19923;-67
2021/07/04 05:07:20;;;;;;;;;;;14.00;93.00;;;;;;5056376;28;19948;-66
2021/07/04 05:09:47;;;;;;;;;;;14.00;93.40;;;;;;5055654;28;20084;-67
2021/07/04 05:12:14;;;;;;;;;;;14.00;93.50;;;;;;5055991;28;19955;-66
2021/07/04 05:14:40;;;;;;;;;;;13.90;93.30;;;;;;5055873;28;19917;-67
2021/07/04 05:17:07;;;;;;;;;;;13.80;93.80;;;;;;5056085;28;19931;-66
2021/07/04 05:19:34;;;;;;;;;;;13.70;94.10;;;;;;5055837;28;20003;-68
2021/07/04 05:22:00;;;;;;;;;;;13.70;94.40;;;;;;5055943;28;19915;-67
2021/07/04 05:24:27;;;;;;;;;;;13.60;93.00;;;;;;5055806;28;19952;-66
2021/07/04 05:26:54;;;;;;;;;;;13.50;93.70;;;;;;5054549;28;19917;-65
2021/07/04 05:29:20;;;;;;;;;;;13.50;94.70;;;;;;5055716;28;19909;-66
2021/07/04 05:31:47;;;;;;;;;;;13.50;93.50;;;;;;5055600;28;19920;-66
2021/07/04 05:34:14;;;;;;;;;;;13.50;94.00;;;;;;5055769;28;19909;-66
2021/07/04 05:36:45;;;;;;;;;;;13.40;94.20;;;;;;5055698;28;19909;-67
2021/07/04 05:39:12;;;;;;;;;;;13.40;94.50;;;;;;5055492;28;19909;-66
2021/07/04 05:41:38;;;;;;;;;;;13.30;94.50;;;;;;5055324;28;19916;-65
2021/07/04 05:44:05;;;;;;;;;;;13.30;95.10;;;;;;5055393;28;20369;-67
2021/07/04 05:46:35;;;;;;;;;;;13.30;95.40;;;;;;5053830;28;19917;-66
2021/07/04 05:49:02;;;;;;;;;;;13.30;94.40;;;;;;5055376;28;19912;-67
2021/07/04 05:51:29;;;;;;;;;;;13.30;94.40;;;;;;5055367;28;19963;-67
2021/07/04 05:53:55;;;;;;;;;;;13.40;94.20;;;;;;5055297;28;19909;-66
2021/07/04 05:56:22;;;;;;;;;;;13.30;94.00;;;;;;5055345;28;20371;-69
2021/07/04 05:58:49;;;;;;;;;;;13.30;94.30;;;;;;5055213;28;19915;-67
2021/07/04 06:01:15;;;;;;;;;;;13.20;94.10;;;;;;5055279;28;20256;-67
2021/07/04 06:03:42;;;;;;;;;;;13.20;94.30;;;;;;5055035;28;19909;-68
2021/07/04 06:06:09;;;;;;;;;;;13.20;93.30;;;;;;5055114;28;20004;-67
2021/07/04 06:08:35;;;;;;;;;;;13.20;93.40;;;;;;5055042;28;20418;-68
2021/07/04 06:11:02;;;;;;;;;;;13.20;94.00;;;;;;5054995;28;19954;-68
2021/07/04 06:13:29;;;;;;;;;;;13.10;94.30;;;;;;5054848;28;20275;-67
2021/07/04 06:15:55;;;;;;;;;;;13.10;94.00;;;;;;5054944;28;19960;-67
2021/07/04 06:18:22;;;;;;;;;;;13.00;95.70;;;;;;5054890;28;19916;-67
2021/07/04 06:20:48;;;;;;;;;;;13.00;95.20;;;;;;5054710;28;19909;-66
2021/07/04 06:23:15;;;;;;;;;;;13.10;95.60;;;;;;5054742;28;20264;-66
2021/07/04 06:25:42;;;;;;;;;;;13.10;96.50;;;;;;5054553;28;20279;-68
2021/07/04 06:28:08;;;;;;;;;;;13.10;95.90;;;;;;5054642;28;19917;-67
2021/07/04 06:30:35;;;;;;;;;;;13.20;96.00;;;;;;5054664;28;19908;-68
2021/07/04 06:33:02;;;;;;;;;;;13.10;96.30;;;;;;5054565;28;20344;-67
2021/07/04 06:35:28;;;;;;;;;;;13.10;96.50;;;;;;5054536;28;20249;-67
2021/07/04 06:37:55;;;;;;;;;;;13.10;97.00;;;;;;5054325;28;19955;-67
2021/07/04 06:40:22;;;;;;;;;;;13.10;97.00;;;;;;5054462;28;19909;-66
2021/07/04 06:42:49;;;;;;;;;;;13.00;96.70;;;;;;5054430;28;19912;-67
2021/07/04 06:45:16;;;;;;;;;;;13.00;97.20;;;;;;5054288;28;19913;-67
2021/07/04 06:47:45;;;;;;;;;;;12.90;96.90;;;;;;5054107;28;19913;-68
2021/07/04 06:50:13;;;;;;;;;;;12.90;96.60;;;;;;5054228;28;19909;-67
2021/07/04 06:52:40;;;;;;;;;;;12.90;97.90;;;;;;5054242;28;19908;-66
2021/07/04 06:55:07;;;;;;;;;;;12.80;97.90;;;;;;5053955;28;19909;-66
2021/07/04 06:57:34;;;;;;;;;;;12.70;98.10;;;;;;5053474;28;19962;-67
2021/07/04 07:00:04;;;;;;;;;;;12.70;97.90;;;;;;5053952;28;19909;-67
2021/07/04 07:02:31;;;;;;;;;;;12.60;98.70;;;;;;5053920;28;20368;-67
2021/07/04 07:04:58;;;;;;;;;;;12.60;99.00;;;;;;5053971;28;19913;-66
2021/07/04 07:07:24;;;;;;;;;;;12.60;99.80;;;;;;5053892;28;19908;-67
2021/07/04 07:09:51;;;;;;;;;;;12.60;99.10;;;;;;5053462;28;19919;-66
2021/07/04 07:12:18;;;;;;;;;;;12.60;98.80;;;;;;5053694;28;19955;-66
2021/07/04 07:14:45;;;;;;;;;;;12.60;99.90;;;;;;5053503;28;19921;-68
2021/07/04 07:17:11;;;;;;;;;;;12.50;99.90;;;;;;5053715;28;19909;-67
2021/07/04 07:19:38;;;;;;;;;;;12.50;99.90;;;;;;5053557;28;19909;-68
2021/07/04 07:22:08;;;;;;;;;;;12.50;99.90;;;;;;5052867;28;20121;-66
2021/07/04 07:24:35;;;;;;;;;;;12.50;99.90;;;;;;5053648;28;19996;-66
2021/07/04 07:27:02;;;;;;;;;;;12.50;99.90;;;;;;5053284;28;19917;-66
2021/07/04 07:29:28;;;;;;;;;;;12.50;99.90;;;;;;5053448;28;19909;-66
2021/07/04 07:31:55;;;;;;;;;;;12.40;99.90;;;;;;5053525;28;19909;-68
2021/07/04 07:34:22;;;;;;;;;;;12.40;99.90;;;;;;5053614;28;19909;-67
2021/07/04 07:36:48;;;;;;;;;;;12.30;99.90;;;;;;5053397;28;19909;-68
2021/07/04 07:39:15;;;;;;;;;;;12.20;99.90;;;;;;5053267;28;20012;-66
2021/07/04 07:41:42;;;;;;;;;;;12.20;99.90;;;;;;5052585;28;20278;-68
2021/07/04 07:44:09;;;;;;;;;;;12.20;99.90;;;;;;5053584;28;19956;-69
2021/07/04 07:46:35;;;;;;;;;;;12.20;99.90;;;;;;5053214;28;20355;-68
2021/07/04 07:49:02;;;;;;;;;;;12.20;99.90;;;;;;5051936;28;19948;-67
2021/07/04 07:51:29;;;;;;;;;;;12.20;99.90;;;;;;5053022;28;20279;-68
2021/07/04 07:53:55;;;;;;;;;;;12.20;99.90;;;;;;5053016;28;19954;-69
2021/07/04 07:56:22;;;;;;;;;;;12.20;99.90;;;;;;5052599;28;19913;-68
2021/07/04 07:58:49;;;;;;;;;;;12.20;99.90;;;;;;5053040;28;19919;-68
2021/07/04 08:01:19;;;;;;;;;;;12.20;99.90;;;;;;5052987;28;19908;-68
2021/07/04 08:03:46;;;;;;;;;;;12.20;99.90;;;;;;5052857;28;19909;-68
2021/07/04 08:06:13;;;;;;;;;;;12.20;99.90;;;;;;5051674;28;20003;-68
2021/07/04 08:08:39;;;;;;;;;;;12.20;99.90;;;;;;5052485;28;19913;-67
2021/07/04 08:11:06;;;;;;;;;;;12.20;99.90;;;;;;5052176;28;20419;-67
2021/07/04 08:13:33;;;;;;;;;;;12.10;99.80;;;;;;5052778;28;20229;-67
2021/07/04 08:16:00;;;;;;;;;;;12.10;99.70;;;;;;5053168;28;19920;-65
2021/07/04 08:18:27;;;;;;;;;;;12.10;99.30;;;;;;5052504;28;19940;-67
2021/07/04 08:20:54;;;;;;;;;;;12.10;99.00;;;;;;5052725;28;19919;-67
2021/07/04 08:23:21;;;;;;;;;;;12.10;99.90;;;;;;5052882;28;19955;-67
2021/07/04 08:25:48;;;;;;;;;;;12.10;99.00;;;;;;5052552;28;19916;-67
2021/07/04 08:28:17;;;;;;;;;;;12.10;98.20;;;;;;5053069;28;19915;-67
2021/07/04 08:30:46;;;;;;;;;;;12.20;98.00;;;;;;5053034;28;19909;-67
2021/07/04 08:33:13;;;;;;;;;;;12.10;98.70;;;;;;5052431;28;19909;-67
2021/07/04 08:35:40;;;;;;;;;;;12.10;99.20;;;;;;5051427;28;19908;-67
2021/07/04 08:38:07;;;;;;;;;;;12.10;98.90;;;;;;5052593;28;19999;-67
2021/07/04 08:40:34;;;;;;;;;;;12.10;98.30;;;;;;5052749;28;19916;-68
2021/07/04 08:43:01;;;;;;;;;;;12.10;98.90;;;;;;5052625;28;19913;-67
2021/07/04 08:45:28;;;;;;;;;;;12.00;98.60;;;;;;5052416;28;20425;-67
2021/07/04 08:47:54;;;;;;;;;;;12.00;99.10;;;;;;5052338;28;19909;-67
2021/07/04 08:50:21;;;;;;;;;;;12.00;98.70;;;;;;5052391;28;20272;-67
2021/07/04 08:52:48;;;;;;;;;;;11.90;99.10;;;;;;5052314;28;19909;-68
2021/07/04 08:55:16;;;;;;;;;;;11.90;98.50;;;;;;5052445;28;19913;-67
2021/07/04 08:57:43;;;;;;;;;;;11.90;98.60;;;;;;5052316;28;19916;-67
2021/07/04 09:00:15;;;;;;;;;;;11.90;99.60;;;;;;5052319;28;19915;-68
2021/07/04 09:02:42;;;;;;;;;;;11.90;99.10;;;;;;5052602;28;20001;-67
2021/07/04 09:05:10;;;;;;;;;;;11.90;98.40;;;;;;5051012;28;20263;-67
2021/07/04 09:07:37;;;;;;;;;;;11.80;98.10;;;;;;5052088;28;19939;-67
2021/07/04 09:10:06;;;;;;;;;;;11.80;98.60;;;;;;5052322;28;19916;-67
2021/07/04 09:12:40;;;;;;;;;;;11.70;99.70;;;;;;5052437;28;19916;-67
2021/07/04 09:15:08;;;;;;;;;;;11.60;99.80;;;;;;5051024;28;19943;-66
2021/07/04 09:17:36;;;;;;;;;;;11.50;99.90;;;;;;5052069;28;19909;-68
2021/07/04 09:20:07;;;;;;;;;;;11.40;99.90;;;;;;5052529;28;19991;-67
2021/07/04 09:22:35;;;;;;;;;;;11.40;99.90;;;;;;5055692;28;19954;-67
2021/07/04 09:25:09;;;;;;;;;;;11.40;99.90;;;;;;5055697;28;20278;-68
2021/07/04 09:27:36;;;;;;;;;;;11.40;99.90;;;;;;5055750;28;20348;-67
2021/07/04 09:30:03;;;;;;;;;;;11.30;99.90;;;;;;5064965;28;19952;-67
2021/07/04 09:32:30;;;;;;;;;;;11.30;99.90;;;;;;5058144;28;19916;-66
2021/07/04 09:35:00;;;;;;;;;;;11.30;99.90;;;;;;5055555;28;20321;-67
2021/07/04 09:37:34;;;;;;;;;;;11.20;99.90;;;;;;5055630;28;20004;-68
2021/07/04 09:40:09;;;;;;;;;;;11.20;99.90;;;;;;5055486;28;20275;-67
2021/07/04 09:42:53;;;;;;;;;;;11.20;99.90;;;;;;5055449;28;19913;-67
2021/07/04 09:45:20;;;;;;;;;;;11.20;99.90;;;;;;5055383;28;19913;-66
2021/07/04 09:47:57;;;;;;;;;;;11.20;99.90;;;;;;5055136;28;20344;-66
2021/07/04 09:50:25;;;;;;;;;;;11.10;99.90;;;;;;5055233;28;19913;-68
2021/07/04 09:52:55;;;;;;;;;;;11.10;99.90;;;;;;5055352;28;19916;-67
2021/07/04 09:55:22;;;;;;;;;;;11.10;99.90;;;;;;5055346;28;19909;-66
2021/07/04 09:57:56;;;;;;;;;;;11.10;99.90;;;;;;5055035;28;19956;-66
2021/07/04 10:00:24;;;;;;;;;;;11.10;99.90;;;;;;5053885;28;19909;-67
2021/07/04 10:03:12;;;;;;;;;;;11.10;99.90;;;;;;5055310;28;19916;-66
2021/07/04 10:05:54;;;;;;;;;;;11.10;99.90;;;;;;5054798;28;19913;-67
2021/07/04 10:08:20;;;;;;;;;;;11.10;99.90;;;;;;5054938;28;20359;-67
2021/07/04 10:10:48;;;;;;;;;;;11.10;99.90;;;;;;5055015;28;20429;-67
2021/07/04 10:13:15;;;;;;;;;;;11.00;99.90;;;;;;5054881;28;19995;-67
2021/07/04 10:15:41;;;;;;;;;;;11.00;99.90;;;;;;5053180;28;19928;-67
2021/07/04 10:18:09;;;;;;;;;;;11.00;99.90;;;;;;5054795;28;19908;-67
2021/07/04 10:20:36;;;;;;;;;;;11.00;99.90;;;;;;5054936;28;19909;-67
2021/07/04 10:23:06;;;;;;;;;;;11.00;99.90;;;;;;5054695;28;19916;-67
2021/07/04 10:25:33;;;;;;;;;;;11.10;99.90;;;;;;5054404;28;19924;-67
2021/07/04 10:28:00;;;;;;;;;;;11.00;99.90;;;;;;5054611;28;20358;-67
2021/07/04 10:30:27;;;;;;;;;;;10.90;99.90;;;;;;5054583;28;20303;-67
2021/07/04 10:33:06;;;;;;;;;;;10.80;99.90;;;;;;5053830;28;19913;-67
2021/07/04 10:35:33;;;;;;;;;;;10.80;99.90;;;;;;5054293;28;19923;-67
2021/07/04 10:38:25;;;;;;;;;;;10.80;99.90;;;;;;5054322;28;19913;-67
2021/07/04 10:41:24;;;;;;;;;;;10.80;99.90;;;;;;5051501;28;19908;-67
2021/07/04 10:43:56;;;;;;;;;;;10.70;99.90;;;;;;5020542;28;19917;-67
2021/07/04 10:46:44;;;;;;;;;;;10.80;99.90;;;;;;5053903;28;20002;-65
2021/07/04 10:49:13;;;;;;;;;;;10.80;99.90;;;;;;5053907;28;19909;-66
2021/07/04 10:52:09;;;;;;;;;;;10.70;99.90;;;;;;5053778;28;19944;-67
2021/07/04 10:54:45;;;;;;;;;;;10.70;99.90;;;;;;5040881;28;20300;-66
2021/07/04 10:57:12;;;;;;;;;;;10.60;99.90;;;;;;5054022;28;19913;-67
2021/07/04 11:00:10;;;;;;;;;;;10.60;99.90;;;;;;5053846;28;19908;-66
2021/07/04 11:02:46;;;;;;;;;;;10.60;99.90;;;;;;5053864;28;19999;-66
2021/07/04 11:05:31;;;;;;;;;;;10.60;99.90;;;;;;5052619;28;19913;-67
2021/07/04 11:07:58;;;;;;;;;;;10.50;99.90;;;;;;5073510;28;19912;-66
2021/07/04 11:10:28;;;;;;;;;;;10.50;99.90;;;;;;5073246;28;20310;-65
2021/07/04 11:12:56;;;;;;;;;;;10.50;99.90;;;;;;5064213;28;19999;-65
2021/07/04 11:15:23;;;;;;;;;;;10.50;99.90;;;;;;5051079;28;19928;-66
2021/07/04 11:17:56;;;;;;;;;;;10.40;99.90;;;;;;5050647;28;19935;-66
2021/07/04 11:20:33;;;;;;;;;;;10.50;99.90;;;;;;5050386;28;19940;-67
2021/07/04 11:23:02;;;;;;;;;;;10.50;99.90;;;;;;5050884;28;20374;-66
2021/07/04 11:25:41;;;;;;;;;;;10.50;99.90;;;;;;5050421;28;19913;-66
2021/07/04 11:28:33;;;;;;;;;;;10.60;99.90;;;;;;5050542;28;19956;-67
2021/07/04 11:31:06;;;;;;;;;;;10.50;99.60;;;;;;5048905;28;20012;-67
2021/07/04 11:33:33;;;;;;;;;;;10.40;99.70;;;;;;5050586;28;20352;-66
2021/07/04 11:36:03;;;;;;;;;;;10.40;99.50;;;;;;5065313;28;19915;-66
2021/07/04 11:38:34;;;;;;;;;;;10.30;99.50;;;;;;5050016;28;19963;-66
2021/07/04 11:41:02;;;;;;;;;;;10.20;99.60;;;;;;5050524;28;20275;-67
2021/07/04 11:43:29;;;;;;;;;;;10.20;99.30;;;;;;5050501;28;20351;-66
2021/07/04 11:45:57;;;;;;;;;;;10.10;99.40;;;;;;5050310;28;19924;-66
2021/07/04 11:48:43;;;;;;;;;;;10.10;99.80;;;;;;5050566;28;20444;-66
2021/07/04 11:51:10;;;;;;;;;;;10.10;99.80;;;;;;5049446;28;19966;-66
2021/07/04 11:53:50;;;;;;;;;;;10.00;99.90;;;;;;5050178;28;19919;-66
2021/07/04 11:56:17;;;;;;;;;;;10.00;99.90;;;;;;5050563;28;19936;-66
2021/07/04 11:58:44;;;;;;;;;;;10.00;99.90;;;;;;5050254;28;19952;-66
2021/07/04 12:01:21;;;;;;;;;;;10.00;99.90;;;;;;5050398;28;19913;-66
2021/07/04 12:03:48;;;;;;;;;;;10.00;99.90;;;;;;5049750;28;19912;-66
2021/07/04 12:06:16;;;;;;;;;;;10.00;99.90;;;;;;5049376;28;19923;-65
2021/07/04 12:08:52;;;;;;;;;;;9.90;99.90;;;;;;5050165;28;19962;-66
2021/07/04 12:11:19;;;;;;;;;;;9.90;99.90;;;;;;5050235;28;19931;-67
2021/07/04 12:13:46;;;;;;;;;;;9.90;99.90;;;;;;5049834;28;19909;-66
2021/07/04 12:16:16;;;;;;;;;;;9.90;99.90;;;;;;5049705;28;20283;-68
2021/07/04 12:18:43;;;;;;;;;;;9.80;99.90;;;;;;5050447;28;19909;-65
2021/07/04 12:21:10;;;;;;;;;;;9.90;99.90;;;;;;5049563;28;20514;-65
2021/07/04 12:23:36;;;;;;;;;;;9.80;99.90;;;;;;5049909;28;19909;-65
2021/07/04 12:26:07;;;;;;;;;;;9.80;99.90;;;;;;5050076;28;19921;-67
2021/07/04 12:28:34;;;;;;;;;;;9.80;99.90;;;;;;5051566;28;19953;-66
2021/07/04 12:31:01;;;;;;;;;;;9.80;99.90;;;;;;5050277;28;20316;-66
2021/07/04 12:33:28;;;;;;;;;;;9.80;99.90;;;;;;5050465;28;19919;-65
2021/07/04 12:36:01;;;;;;;;;;;9.80;99.90;;;;;;5049635;28;19909;-66
2021/07/04 12:38:28;;;;;;;;;;;9.70;99.90;;;;;;5049980;28;19909;-65
2021/07/04 12:40:56;;;;;;;;;;;9.70;99.90;;;;;;5050670;28;19955;-67
2021/07/04 12:43:25;;;;;;;;;;;9.80;99.90;;;;;;5049649;28;19909;-66
2021/07/04 12:45:52;;;;;;;;;;;9.90;99.90;;;;;;5049983;28;19921;-66
2021/07/04 12:48:20;;;;;;;;;;;9.90;99.90;;;;;;5049964;28;19944;-66
2021/07/04 12:50:49;;;;;;;;;;;9.90;99.90;;;;;;5049507;28;19955;-66
2021/07/04 12:53:16;;;;;;;;;;;9.90;99.90;;;;;;5049885;28;20310;-66
2021/07/04 12:55:45;;;;;;;;;;;9.90;99.90;;;;;;5050758;28;19909;-66
2021/07/04 12:58:22;;;;;;;;;;;9.90;99.90;;;;;;5053719;28;19944;-68
2021/07/04 13:00:48;;;;;;;;;;;9.80;99.90;;;;;;5053783;28;20477;-66
2021/07/04 13:03:33;;;;;;;;;;;9.90;99.90;;;;;;5053507;28;19944;-66
2021/07/04 13:06:00;;;;;;;;;;;9.80;99.90;;;;;;5053214;28;19923;-66
2021/07/04 13:08:26;;;;;;;;;;;9.70;99.90;;;;;;5053151;28;19955;-66
2021/07/04 13:10:53;;;;;;;;;;;9.70;99.90;;;;;;5053110;28;19916;-66
2021/07/04 13:13:20;;;;;;;;;;;9.70;99.90;;;;;;5053183;28;19909;-66
2021/07/04 13:15:46;;;;;;;;;;;9.70;99.90;;;;;;5052503;28;20011;-67
2021/07/04 13:18:26;;;;;;;;;;;9.70;99.90;;;;;;5053168;28;19990;-68
2021/07/04 13:20:53;;;;;;;;;;;9.70;99.90;;;;;;5053139;28;19915;-67
2021/07/04 13:23:20;;;;;;;;;;;9.60;99.90;;;;;;5052919;28;19920;-67
2021/07/04 13:25:53;;;;;;;;;;;9.50;99.90;;;;;;5053005;28;19920;-67
2021/07/04 13:28:19;;;;;;;;;;;9.50;99.90;;;;;;5053213;28;19912;-67
2021/07/04 13:30:49;;;;;;;;;;;9.50;99.90;;;;;;5052986;28;19920;-67
2021/07/04 13:33:26;;;;;;;;;;;9.60;99.90;;;;;;5052321;28;19909;-67
2021/07/04 13:35:53;;;;;;;;;;;9.50;99.90;;;;;;5059952;28;19944;-67
2021/07/04 13:38:20;;;;;;;;;;;9.50;99.90;;;;;;5073615;28;19912;-68
2021/07/04 13:40:48;;;;;;;;;;;9.50;99.90;;;;;;5073648;28;20013;-68
2021/07/04 13:43:15;;;;;;;;;;;9.40;99.90;;;;;;5073461;28;19962;-68
2021/07/04 13:45:49;;;;;;;;;;;9.40;99.90;;;;;;5071736;28;19916;-67
2021/07/04 13:48:17;;;;;;;;;;;9.40;99.90;;;;;;5073078;28;20330;-67
2021/07/04 13:50:45;;;;;;;;;;;9.40;99.90;;;;;;5073229;28;19912;-67
2021/07/04 13:53:12;;;;;;;;;;;9.40;99.90;;;;;;5073518;28;19908;-67
2021/07/04 13:55:39;;;;;;;;;;;9.50;99.90;;;;;;5073020;28;20332;-67
2021/07/04 13:58:08;;;;;;;;;;;9.50;99.90;;;;;;5073137;28;19951;-69
2021/07/04 14:00:36;;;;;;;;;;;9.60;99.90;;;;;;5073239;28;20375;-68
2021/07/04 14:03:02;;;;;;;;;;;9.50;99.40;;;;;;5073203;28;20362;-66
2021/07/04 14:05:29;;;;;;;;;;;9.60;99.40;;;;;;5073179;28;19916;-67
2021/07/04 14:07:56;;;;;;;;;;;9.60;98.60;;;;;;5071964;28;20287;-67
2021/07/04 14:10:23;;;;;;;;;;;9.60;98.40;;;;;;5072837;28;19952;-66
2021/07/04 14:12:51;;;;;;;;;;;9.60;98.50;;;;;;5072643;28;20295;-67
2021/07/04 14:15:18;;;;;;;;;;;9.60;98.60;;;;;;5072556;28;19939;-67
2021/07/04 14:17:44;;;;;;;;;;;9.70;98.40;;;;;;5072657;28;19918;-66
2021/07/04 14:20:12;;;;;;;;;;;9.70;98.80;;;;;;5072880;28;19922;-67
2021/07/04 14:22:39;;;;;;;;;;;9.90;97.80;;;;;;5072537;28;19920;-67
2021/07/04 14:25:08;;;;;;;;;;;9.90;96.90;;;;;;5072532;28;19934;-67